createdAt,value
2019-03-21T00:00:02.111Z,9.8
2019-03-21T00:05:01.958Z,9.9
2019-03-21T00:10:02.158Z,9.9
2019-03-21T00:15:01.610Z,10
2019-03-21T00:20:01.795Z,10
2019-03-21T00:25:01.640Z,10
2019-03-21T00:30:01.918Z,10
2019-03-21T00:35:01.429Z,10
2019-03-21T00:40:01.674Z,10
2019-03-21T00:45:02.132Z,10
2019-03-21T00:50:01.969Z,10
2019-03-21T00:55:01.648Z,10.1
2019-03-21T01:00:01.469Z,10.1
2019-03-21T01:05:01.538Z,10.1
2019-03-21T01:10:01.500Z,10.1
2019-03-21T01:15:01.356Z,10.1
2019-03-21T01:20:02.338Z,10.1
2019-03-21T01:25:01.621Z,10.1
2019-03-21T01:30:01.801Z,10.1
2019-03-21T01:35:02.354Z,10.1
2019-03-21T01:40:01.840Z,10.1
2019-03-21T01:45:01.522Z,10.2
2019-03-21T01:50:01.997Z,10.1
2019-03-21T01:55:02.426Z,10.2
2019-03-21T02:00:02.048Z,10.2
2019-03-21T02:05:01.628Z,10.2
2019-03-21T02:10:01.625Z,10.1
2019-03-21T02:15:01.964Z,10.1
2019-03-21T02:20:01.335Z,10.1
2019-03-21T02:25:01.193Z,10.2
2019-03-21T02:30:02.306Z,10.1
2019-03-21T02:35:01.796Z,10.2
2019-03-21T02:40:01.863Z,10.1
2019-03-21T02:45:08.076Z,10.1
2019-03-21T02:50:01.647Z,10.2
2019-03-21T02:55:01.241Z,10.1
2019-03-21T03:00:01.555Z,10.2
2019-03-21T03:05:01.551Z,10.1
2019-03-21T03:10:01.294Z,10.1
2019-03-21T03:15:01.615Z,10.1
2019-03-21T03:20:02.257Z,10.1
2019-03-21T03:25:01.947Z,10
2019-03-21T03:30:01.836Z,10.1
2019-03-21T03:35:01.613Z,10.1
2019-03-21T03:40:01.952Z,10.1
2019-03-21T03:45:01.570Z,10
2019-03-21T03:50:01.442Z,10
2019-03-21T03:55:02.380Z,10
2019-03-21T04:00:01.386Z,9.9
2019-03-21T04:05:02.054Z,10
2019-03-21T04:10:01.955Z,10
2019-03-21T04:15:02.434Z,10
2019-03-21T04:20:01.787Z,10
2019-03-21T04:25:01.627Z,10
2019-03-21T04:30:02.010Z,10.1
2019-03-21T04:35:01.943Z,10
2019-03-21T04:40:01.262Z,10.1
2019-03-21T04:45:02.052Z,10.1
2019-03-21T04:50:01.448Z,10.1
2019-03-21T04:55:01.415Z,10.2
2019-03-21T05:00:03.627Z,10.1
2019-03-21T05:05:01.692Z,10.1
2019-03-21T05:10:01.244Z,10.1
2019-03-21T05:15:01.343Z,10.1
2019-03-21T05:20:02.437Z,10.1
2019-03-21T05:25:01.226Z,10.1
2019-03-21T05:30:01.800Z,10
2019-03-21T05:35:01.675Z,10
2019-03-21T05:40:01.796Z,10
2019-03-21T05:45:02.137Z,10
2019-03-21T05:50:01.353Z,10
2019-03-21T05:55:01.585Z,10
2019-03-21T06:00:01.741Z,10
2019-03-21T06:05:01.639Z,10
2019-03-21T06:10:02.441Z,9.9
2019-03-21T06:15:01.166Z,9.9
2019-03-21T06:20:03.985Z,9.9
2019-03-21T06:25:01.720Z,9.9
2019-03-21T06:30:01.622Z,9.8
2019-03-21T06:35:01.335Z,9.8
2019-03-21T06:40:02.214Z,9.8
2019-03-21T06:45:01.743Z,9.8
2019-03-21T06:50:01.844Z,9.8
2019-03-21T06:55:02.148Z,9.8
2019-03-21T07:00:01.382Z,9.8
2019-03-21T07:05:01.888Z,9.7
2019-03-21T07:10:01.515Z,9.7
2019-03-21T07:15:04.355Z,9.7
2019-03-21T07:20:01.834Z,9.7
2019-03-21T07:25:02.053Z,9.8
2019-03-21T07:30:01.398Z,9.8
2019-03-21T07:35:01.616Z,9.8
2019-03-21T07:40:01.440Z,9.7
2019-03-21T07:45:02.108Z,9.8
2019-03-21T07:50:01.564Z,9.8
2019-03-21T07:55:02.357Z,9.8
2019-03-21T08:00:01.681Z,9.8
2019-03-21T08:05:01.548Z,9.8
2019-03-21T08:10:01.401Z,9.9
2019-03-21T08:15:01.493Z,9.9
2019-03-21T08:20:01.253Z,9.9
2019-03-21T08:25:01.261Z,10
2019-03-21T08:30:01.911Z,9.9
2019-03-21T08:35:01.660Z,9.8
2019-03-21T08:40:01.777Z,9.8
2019-03-21T08:45:02.189Z,9.8
2019-03-21T08:50:01.633Z,9.9
2019-03-21T08:55:01.852Z,9.8
2019-03-21T09:00:01.749Z,9.8
2019-03-21T09:05:01.869Z,9.8
2019-03-21T09:10:01.701Z,9.8
2019-03-21T09:15:01.716Z,9.8
2019-03-21T09:20:01.509Z,9.7
2019-03-21T09:25:01.184Z,9.7
2019-03-21T09:30:01.707Z,9.6
2019-03-21T09:35:01.813Z,9.6
2019-03-21T09:40:01.325Z,9.5
2019-03-21T09:45:01.686Z,9.5
2019-03-21T09:50:01.954Z,9.4
2019-03-21T09:55:01.731Z,9.3
2019-03-21T10:00:01.455Z,9.3
2019-03-21T10:05:01.782Z,9.3
2019-03-21T10:10:01.502Z,9.3
2019-03-21T10:15:01.498Z,9.5
2019-03-21T10:20:02.382Z,9.6
2019-03-21T10:25:02.030Z,9.7
2019-03-21T10:30:01.481Z,9.8
2019-03-21T10:35:01.389Z,9.9
2019-03-21T10:40:01.730Z,9.9
2019-03-21T10:45:01.882Z,10
2019-03-21T10:50:01.270Z,10.1
2019-03-21T10:55:01.625Z,10.1
2019-03-21T11:00:02.347Z,10.2
2019-03-21T11:05:01.926Z,10.3
2019-03-21T11:10:02.094Z,10.4
2019-03-21T11:15:01.518Z,10.5
2019-03-21T11:20:01.227Z,10.6
2019-03-21T11:25:01.196Z,10.6
2019-03-21T11:30:01.716Z,10.6
2019-03-21T11:35:01.692Z,10.7
2019-03-21T11:40:01.696Z,10.7
2019-03-21T11:45:01.981Z,10.7
2019-03-21T11:50:01.898Z,10.9
2019-03-21T11:55:01.795Z,10.9
2019-03-21T12:00:01.766Z,11
2019-03-21T12:05:02.145Z,11.1
2019-03-21T12:10:01.635Z,11.1
2019-03-21T12:15:01.903Z,11.2
2019-03-21T12:20:01.659Z,11.3
2019-03-21T12:25:01.889Z,11.4
2019-03-21T12:30:01.941Z,11.4
2019-03-21T12:35:01.653Z,11.5
2019-03-21T12:40:01.703Z,11.7
2019-03-21T12:45:01.676Z,11.8
2019-03-21T12:50:02.249Z,12
2019-03-21T12:55:01.498Z,12
2019-03-21T13:00:01.873Z,12.1
2019-03-21T13:05:01.543Z,12.2
2019-03-21T13:10:02.009Z,12.2
2019-03-21T13:15:01.445Z,12.2
2019-03-21T13:20:01.772Z,12.2
2019-03-21T13:25:01.811Z,12.1
2019-03-21T13:30:03.544Z,12.1
2019-03-21T13:35:01.745Z,12.1
2019-03-21T13:40:01.405Z,12.1
2019-03-21T13:45:01.836Z,12.1
2019-03-21T13:50:01.639Z,12.1
2019-03-21T13:55:02.066Z,12.1
2019-03-21T14:00:01.702Z,12.2
2019-03-21T14:05:02.219Z,12.2
2019-03-21T14:10:01.443Z,12.2
2019-03-21T14:15:02.212Z,12.2
2019-03-21T14:20:02.558Z,12.2
2019-03-21T14:25:01.389Z,12.3
2019-03-21T14:30:02.380Z,12.3
2019-03-21T14:35:02.481Z,12.3
2019-03-21T14:40:01.750Z,12.2
2019-03-21T14:45:01.231Z,12.2
2019-03-21T14:50:02.024Z,12.1
2019-03-21T14:55:02.366Z,12.1
2019-03-21T15:00:01.197Z,12.1
2019-03-21T15:05:01.355Z,12.1
2019-03-21T15:10:01.664Z,12.1
2019-03-21T15:15:01.635Z,12.1
2019-03-21T15:20:02.348Z,12.1
2019-03-21T15:25:01.831Z,12.1
2019-03-21T15:30:01.810Z,12.1
2019-03-21T15:35:01.668Z,12
2019-03-21T15:40:01.614Z,12
2019-03-21T15:45:15.836Z,11.9
2019-03-21T15:50:01.269Z,11.9
2019-03-21T15:55:01.431Z,11.8
2019-03-21T16:00:01.948Z,11.8
2019-03-21T16:05:01.888Z,11.8
2019-03-21T16:10:01.641Z,11.8
2019-03-21T16:15:02.080Z,11.7
2019-03-21T16:20:01.509Z,11.7
2019-03-21T16:25:02.172Z,11.8
2019-03-21T16:30:01.798Z,11.8
2019-03-21T16:35:01.937Z,11.8
2019-03-21T16:40:01.717Z,11.7
2019-03-21T16:45:01.972Z,11.7
2019-03-21T16:50:02.206Z,11.7
2019-03-21T16:55:01.957Z,11.7
2019-03-21T17:00:01.688Z,11.7
2019-03-21T17:05:01.537Z,11.7
2019-03-21T17:10:02.191Z,11.7
2019-03-21T17:15:01.495Z,11.6
2019-03-21T17:20:03.648Z,11.6
2019-03-21T17:25:01.207Z,11.6
2019-03-21T17:30:02.541Z,11.5
2019-03-21T17:35:01.807Z,11.5
2019-03-21T17:40:01.767Z,11.5
2019-03-21T17:45:02.334Z,11.5
2019-03-21T17:50:01.401Z,11.4
2019-03-21T17:55:01.786Z,11.4
2019-03-21T18:00:01.854Z,11.3
2019-03-21T18:05:02.377Z,11.3
2019-03-21T18:10:01.708Z,11.3
2019-03-21T18:15:01.804Z,11.3
2019-03-21T18:20:02.663Z,11.2
2019-03-21T18:25:01.611Z,11.2
2019-03-21T18:30:01.777Z,11.2
2019-03-21T18:35:01.795Z,11.2
2019-03-21T18:40:02.752Z,11.2
2019-03-21T18:45:02.014Z,11.2
2019-03-21T18:50:01.525Z,11.1
2019-03-21T18:55:06.433Z,11.1
2019-03-21T19:00:02.282Z,11.1
2019-03-21T19:05:02.121Z,11
2019-03-21T19:10:02.917Z,11
2019-03-21T19:15:01.981Z,10.9
2019-03-21T19:20:02.531Z,10.9
2019-03-21T19:25:02.240Z,10.9
2019-03-21T19:30:01.519Z,10.8
2019-03-21T19:35:02.537Z,10.8
2019-03-21T19:40:01.665Z,10.8
2019-03-21T19:45:01.810Z,10.8
2019-03-21T19:50:01.940Z,10.8
2019-03-21T19:55:02.366Z,10.8
2019-03-21T20:00:02.304Z,10.8
2019-03-21T20:05:02.172Z,10.7
2019-03-21T20:10:01.256Z,10.7
2019-03-21T20:15:01.806Z,10.7
2019-03-21T20:20:01.656Z,10.7
2019-03-21T20:25:01.678Z,10.6
2019-03-21T20:30:02.362Z,10.5
2019-03-21T20:35:01.469Z,10.5
2019-03-21T20:40:01.777Z,10.4
2019-03-21T20:45:01.384Z,10.4
2019-03-21T20:50:02.206Z,10.3
2019-03-21T20:55:01.512Z,10.3
2019-03-21T21:00:01.636Z,10.3
2019-03-21T21:05:02.456Z,10.3
2019-03-21T21:10:01.783Z,10.3
2019-03-21T21:15:01.952Z,10.2
2019-03-21T21:20:01.210Z,10.2
2019-03-21T21:25:01.474Z,10.1
2019-03-21T21:30:01.211Z,10.1
2019-03-21T21:35:01.558Z,10.1
2019-03-21T21:40:01.535Z,10.1
2019-03-21T21:45:01.504Z,10
2019-03-21T21:50:01.213Z,10
2019-03-21T21:55:02.095Z,10
2019-03-21T22:00:01.551Z,10
2019-03-21T22:05:01.354Z,10
2019-03-21T22:10:01.979Z,10
2019-03-21T22:15:02.483Z,10
2019-03-21T22:20:01.867Z,10
2019-03-21T22:25:01.800Z,9.9
2019-03-21T22:30:04.179Z,9.9
2019-03-21T22:35:01.818Z,9.8
2019-03-21T22:40:01.849Z,9.8
2019-03-21T22:45:01.489Z,9.7
2019-03-21T22:50:02.310Z,9.7
2019-03-21T22:55:01.533Z,9.7
2019-03-21T23:00:01.221Z,9.7
2019-03-21T23:05:01.905Z,9.7
2019-03-21T23:10:01.627Z,9.7
2019-03-21T23:15:02.079Z,9.7
2019-03-21T23:20:01.391Z,9.7
2019-03-21T23:25:01.680Z,9.7
2019-03-21T23:30:01.982Z,9.7
2019-03-21T23:35:01.852Z,9.7
2019-03-21T23:40:01.408Z,9.7
2019-03-21T23:45:02.057Z,9.7
2019-03-21T23:50:01.618Z,9.6
2019-03-21T23:55:01.765Z,9.6
